Time;durP1;ratioP1;P1;durP2;ratioP2;P2;SDS_P1;SDS_P2;PMS_P1;PMS_P2;Temp;Humidity;BMP_temperature;BMP_pressure;BME280_temperature;BME280_humidity;BME280_pressure;Samples;Min_cycle;Max_cycle;Signal;HPM_P1;HPM_P2
2023/08/15 00:02:08;;;;;;;;;2.33;2.33;;;;;23.81;54.09;101069.72;5095757;27;46208;-46
2023/08/15 00:04:35;;;;;;;;;3.00;2.00;;;;;23.78;53.78;101073.59;5097110;27;69654;-45
2023/08/15 00:07:03;;;;;;;;;1.00;1.00;;;;;23.74;54.07;101068.63;5091485;27;45430;-47
2023/08/15 00:09:28;;;;;;;;;4.00;2.50;;;;;23.73;54.05;101084.06;5093297;27;45193;-45
2023/08/15 00:11:53;;;;;;;;;0.00;0.00;;;;;23.71;54.08;101077.94;5087094;27;63405;-45
2023/08/15 00:14:18;;;;;;;;;3.50;1.00;;;;;23.70;53.45;101072.66;5079905;27;67159;-46
2023/08/15 00:16:44;;;;;;;;;3.00;3.00;;;;;23.64;54.25;101073.31;5089523;27;65271;-46
2023/08/15 00:19:09;;;;;;;;;4.25;2.00;;;;;23.59;53.61;101068.34;5090927;27;58123;-51
2023/08/15 00:21:34;;;;;;;;;1.25;1.00;;;;;23.55;54.10;101075.09;5067963;27;68741;-47
2023/08/15 00:24:00;;;;;;;;;6.00;2.00;;;;;23.54;54.29;101070.66;5079454;28;70656;-45
2023/08/15 00:26:25;;;;;;;;;4.00;2.00;;;;;23.49;54.18;101059.41;5064257;27;45421;-46
2023/08/15 00:28:50;;;;;;;;;4.00;2.75;;;;;23.40;54.41;101062.06;5055693;28;68532;-45
2023/08/15 00:31:16;;;;;;;;;3.00;1.00;;;;;23.35;54.17;101064.38;5073779;27;52019;-45
2023/08/15 00:33:41;;;;;;;;;5.00;2.25;;;;;23.34;54.34;101070.81;5091030;27;45338;-49
2023/08/15 00:36:07;;;;;;;;;1.00;1.00;;;;;23.31;54.82;101067.53;5097178;27;45808;-50
2023/08/15 00:38:32;;;;;;;;;3.25;2.00;;;;;23.28;54.27;101063.28;5089458;27;45426;-46
2023/08/15 00:40:57;;;;;;;;;2.00;2.00;;;;;23.23;54.99;101061.03;5080286;27;72823;-47
2023/08/15 00:43:23;;;;;;;;;3.00;3.00;;;;;23.19;55.13;101062.31;5086265;27;71700;-49
2023/08/15 00:45:48;;;;;;;;;3.00;1.00;;;;;23.14;55.38;101061.97;5096656;27;67120;-49
2023/08/15 00:48:15;;;;;;;;;2.00;2.00;;;;;23.10;55.30;101061.38;5079396;27;60841;-45
2023/08/15 00:50:42;;;;;;;;;2.25;2.00;;;;;23.04;55.33;101064.69;5064027;27;70628;-45
2023/08/15 00:53:08;;;;;;;;;4.25;1.75;;;;;23.00;55.61;101062.41;5079798;28;45687;-46
2023/08/15 00:55:33;;;;;;;;;2.75;2.25;;;;;22.98;55.64;101061.75;5073315;27;45263;-46
2023/08/15 00:57:59;;;;;;;;;3.25;3.00;;;;;22.93;55.74;101060.34;5089457;27;45661;-47
2023/08/15 01:00:25;;;;;;;;;4.00;2.25;;;;;22.88;55.99;101069.91;5067769;27;56638;-47
2023/08/15 01:02:51;;;;;;;;;3.00;2.00;;;;;22.83;56.24;101075.81;5080133;28;45421;-45
2023/08/15 01:05:16;;;;;;;;;4.00;2.50;;;;;22.82;56.37;101075.97;5094653;27;45360;-45
2023/08/15 01:07:42;;;;;;;;;3.00;2.00;;;;;22.78;56.03;101065.41;5080443;27;67127;-48
2023/08/15 01:10:08;;;;;;;;;5.25;2.00;;;;;22.75;56.50;101075.69;5075642;27;45677;-46
2023/08/15 01:12:39;;;;;;;;;2.00;2.00;;;;;22.70;56.25;101067.19;5099002;27;45335;-46
2023/08/15 01:15:07;;;;;;;;;4.00;2.00;;;;;22.65;56.98;101064.06;5099985;27;45522;-45
2023/08/15 01:17:44;;;;;;;;;1.50;1.50;;;;;22.63;56.99;101069.59;5072179;28;45630;-49
2023/08/15 01:20:13;;;;;;;;;6.25;2.50;;;;;22.62;57.10;101070.63;5078585;27;47178;-46
2023/08/15 01:22:43;;;;;;;;;3.00;3.00;;;;;22.64;57.43;101076.75;5099275;27;45402;-46
2023/08/15 01:25:08;;;;;;;;;2.75;2.00;;;;;22.67;57.75;101075.59;5094924;27;45450;-46
2023/08/15 01:27:34;;;;;;;;;5.00;3.00;;;;;22.68;57.05;101082.72;5078948;28;45404;-47
2023/08/15 01:30:00;;;;;;;;;4.00;3.00;;;;;22.72;57.40;101090.41;5082853;27;45483;-45
2023/08/15 01:32:40;;;;;;;;;3.50;3.00;;;;;22.72;57.05;101085.00;5087670;27;45417;-44
2023/08/15 01:35:12;;;;;;;;;4.00;2.00;;;;;22.71;57.08;101087.84;5067497;27;45462;-46
2023/08/15 01:37:40;;;;;;;;;3.00;3.00;;;;;22.72;57.15;101089.53;5097060;27;45605;-49
2023/08/15 01:40:09;;;;;;;;;5.50;3.00;;;;;22.76;57.25;101096.38;5091710;27;46279;-45
2023/08/15 01:42:36;;;;;;;;;2.25;2.25;;;;;22.78;57.46;101084.38;5059799;27;45369;-46
2023/08/15 01:45:01;;;;;;;;;3.00;2.00;;;;;22.81;57.63;101091.34;5063481;28;45441;-48
2023/08/15 01:47:32;;;;;;;;;2.25;1.25;;;;;22.82;57.00;101101.22;5074409;27;45348;-48
2023/08/15 01:49:57;;;;;;;;;3.75;2.00;;;;;22.84;57.29;101106.47;5072685;28;46128;-45
2023/08/15 01:52:23;;;;;;;;;3.00;2.00;;;;;22.85;57.24;101109.03;5093796;27;45387;-46
2023/08/15 01:54:48;;;;;;;;;3.67;3.00;;;;;22.84;57.29;101120.91;5088663;27;68224;-47
2023/08/15 01:57:13;;;;;;;;;3.00;3.00;;;;;22.83;57.27;101113.75;5081854;27;46122;-46
2023/08/15 01:59:39;;;;;;;;;3.00;2.50;;;;;22.86;57.56;101123.47;5081504;27;74982;-46
2023/08/15 02:02:06;;;;;;;;;4.50;2.50;;;;;22.85;57.30;101122.59;5087985;27;45433;-49
2023/08/15 02:04:32;;;;;;;;;4.50;3.00;;;;;22.84;57.10;101120.03;5097340;27;45442;-48
2023/08/15 02:06:57;;;;;;;;;3.00;3.00;;;;;22.80;57.13;101128.47;5092581;27;46763;-47
2023/08/15 02:09:22;;;;;;;;;3.00;3.00;;;;;22.79;57.59;101129.47;5085464;27;73482;-48
2023/08/15 02:11:48;;;;;;;;;2.00;1.00;;;;;22.80;57.38;101128.47;5084567;27;67245;-47
2023/08/15 02:14:13;;;;;;;;;2.25;1.50;;;;;22.80;57.14;101122.19;5091203;27;58089;-47
2023/08/15 02:16:38;;;;;;;;;2.00;2.00;;;;;22.79;57.25;101123.22;5086209;27;69794;-46
2023/08/15 02:19:04;;;;;;;;;7.00;3.67;;;;;22.80;56.98;101119.47;5082076;27;71830;-45
2023/08/15 02:21:29;;;;;;;;;2.00;2.00;;;;;22.77;57.55;101123.34;5082142;27;71347;-48
2023/08/15 02:23:55;;;;;;;;;3.50;2.50;;;;;22.76;57.09;101127.06;5087937;27;45642;-47
2023/08/15 02:26:20;;;;;;;;;2.25;2.25;;;;;22.75;57.45;101128.06;5089456;27;51174;-46
2023/08/15 02:28:45;;;;;;;;;3.00;3.00;;;;;22.74;57.66;101126.34;5059728;28;45738;-45
2023/08/15 02:31:11;;;;;;;;;4.67;4.00;;;;;22.74;57.48;101128.22;5083739;27;45436;-45
2023/08/15 02:33:36;;;;;;;;;3.67;3.00;;;;;22.73;57.52;101126.50;5096365;27;61243;-45
2023/08/15 02:36:05;;;;;;;;;2.00;2.00;;;;;22.71;57.52;101142.94;5070575;27;45592;-47
2023/08/15 02:38:31;;;;;;;;;3.00;3.00;;;;;22.67;57.74;101132.50;5081709;27;45527;-46
2023/08/15 02:40:57;;;;;;;;;3.67;3.67;;;;;22.61;57.72;101126.69;5085600;27;45426;-45
2023/08/15 02:43:22;;;;;;;;;6.00;4.00;;;;;22.59;57.74;101127.81;5083123;27;65423;-45
2023/08/15 02:45:47;;;;;;;;;1.50;1.50;;;;;22.59;57.76;101133.25;5085180;27;68316;-48
2023/08/15 02:48:13;;;;;;;;;1.75;1.75;;;;;22.59;57.67;101135.97;5075616;27;71140;-46
2023/08/15 02:50:38;;;;;;;;;6.67;4.00;;;;;22.57;57.69;101124.44;5085056;27;70663;-46
2023/08/15 02:53:03;;;;;;;;;7.33;3.00;;;;;22.54;57.66;101120.16;5083209;27;66597;-46
2023/08/15 02:55:29;;;;;;;;;4.00;2.00;;;;;22.50;57.89;101123.28;5085310;27;68015;-49
2023/08/15 02:57:54;;;;;;;;;3.33;1.67;;;;;22.46;58.07;101126.31;5069876;27;69435;-48
2023/08/15 03:00:19;;;;;;;;;6.67;4.67;;;;;22.44;58.28;101132.88;5050494;28;72338;-47
2023/08/15 03:02:45;;;;;;;;;3.00;3.00;;;;;22.43;58.86;101131.16;5072403;27;45460;-46
2023/08/15 03:05:10;;;;;;;;;4.00;4.00;;;;;22.40;58.50;101131.47;5067940;27;45524;-46
2023/08/15 03:07:35;;;;;;;;;3.67;3.00;;;;;22.37;58.64;101137.16;5091817;27;46076;-45
2023/08/15 03:10:01;;;;;;;;;1.00;1.00;;;;;22.32;58.80;101137.56;5046856;28;45496;-46
2023/08/15 03:12:28;;;;;;;;;5.00;4.00;;;;;22.30;58.79;101140.41;5063100;28;45850;-50
2023/08/15 03:14:55;;;;;;;;;3.33;3.33;;;;;22.28;58.84;101131.59;5095626;27;45399;-47
2023/08/15 03:17:21;;;;;;;;;6.67;4.00;;;;;22.23;58.87;101133.88;5084468;27;46413;-46
2023/08/15 03:19:47;;;;;;;;;3.00;3.00;;;;;22.19;58.85;101126.16;5071497;27;45599;-46
2023/08/15 03:22:12;;;;;;;;;3.33;2.00;;;;;22.13;58.89;101128.47;5101155;27;55000;-46
2023/08/15 03:24:38;;;;;;;;;3.33;3.00;;;;;22.06;59.30;101119.22;5069928;27;45566;-48
2023/08/15 03:27:03;;;;;;;;;2.00;2.00;;;;;22.00;59.14;101124.38;5093635;27;60084;-46
2023/08/15 03:29:28;;;;;;;;;3.00;3.00;;;;;21.96;59.26;101127.34;5080042;27;68448;-46
2023/08/15 03:31:57;;;;;;;;;7.00;3.00;;;;;21.93;59.38;101127.63;5088329;27;50997;-45
2023/08/15 03:34:23;;;;;;;;;5.00;3.25;;;;;21.90;59.53;101127.94;5096110;27;45469;-46
2023/08/15 03:36:48;;;;;;;;;2.50;2.50;;;;;21.87;60.14;101141.72;5080609;27;46134;-46
2023/08/15 03:39:13;;;;;;;;;2.00;1.33;;;;;21.80;59.97;101149.56;5092252;27;69134;-47
2023/08/15 03:41:39;;;;;;;;;4.00;2.33;;;;;21.76;59.71;101160.84;5087631;27;62197;-45
2023/08/15 03:44:04;;;;;;;;;8.00;5.00;;;;;21.74;60.17;101170.94;5086845;27;66164;-47
2023/08/15 03:46:30;;;;;;;;;3.00;3.00;;;;;21.72;60.40;101173.81;5093011;27;45723;-47
2023/08/15 03:48:55;;;;;;;;;6.33;4.00;;;;;21.71;60.68;101168.53;5082124;27;45528;-45
2023/08/15 03:51:20;;;;;;;;;2.00;2.00;;;;;21.69;61.08;101167.81;5088074;27;45397;-46
2023/08/15 03:53:46;;;;;;;;;3.67;3.67;;;;;21.67;60.34;101167.94;5085910;27;62532;-47
2023/08/15 03:56:11;;;;;;;;;3.25;3.25;;;;;21.65;60.69;101172.63;5099301;27;73409;-48
2023/08/15 03:58:36;;;;;;;;;3.00;3.00;;;;;21.62;60.86;101168.34;5085074;27;69210;-48
2023/08/15 04:01:02;;;;;;;;;3.00;3.00;;;;;21.60;60.92;101174.91;5071226;27;45362;-47
2023/08/15 04:03:27;;;;;;;;;4.00;3.67;;;;;21.58;61.27;101176.91;5097968;27;45557;-45
2023/08/15 04:05:53;;;;;;;;;4.33;2.33;;;;;21.54;61.39;101180.88;5097927;27;47071;-48
2023/08/15 04:08:18;;;;;;;;;2.00;2.00;;;;;21.48;60.86;101193.94;5100968;27;47651;-46
2023/08/15 04:10:45;;;;;;;;;3.00;1.33;;;;;21.42;61.58;101201.75;5080859;27;55711;-46
2023/08/15 04:13:10;;;;;;;;;3.00;3.00;;;;;21.39;61.50;101215.56;5062920;28;45373;-47
2023/08/15 04:15:36;;;;;;;;;2.50;2.50;;;;;21.35;62.51;101212.25;5099586;27;46136;-46
2023/08/15 04:18:06;;;;;;;;;2.00;2.00;;;;;21.30;61.99;101203.69;5100318;27;45406;-46
2023/08/15 04:20:32;;;;;;;;;3.67;3.67;;;;;21.28;61.80;101211.97;5094180;27;45406;-46
2023/08/15 04:22:57;;;;;;;;;3.00;3.00;;;;;21.26;61.54;101216.66;5075382;27;45374;-46
2023/08/15 04:25:23;;;;;;;;;3.33;3.00;;;;;21.24;62.65;101218.63;5092965;27;75461;-47
2023/08/15 04:27:48;;;;;;;;;3.00;3.00;;;;;21.23;62.04;101227.75;5093400;27;45497;-52
2023/08/15 04:30:14;;;;;;;;;4.00;4.00;;;;;21.17;63.55;101233.69;5099524;27;58863;-47
2023/08/15 04:32:39;;;;;;;;;3.33;3.33;;;;;21.10;62.79;101236.06;5099955;27;45381;-47
2023/08/15 04:35:05;;;;;;;;;7.67;4.33;;;;;21.07;62.34;101238.22;5085428;27;45422;-51
2023/08/15 04:37:30;;;;;;;;;4.33;2.33;;;;;21.05;62.99;101234.78;5086315;27;45729;-47
2023/08/15 04:39:55;;;;;;;;;4.00;4.00;;;;;21.05;63.36;101226.66;5098737;27;45549;-45
2023/08/15 04:42:21;;;;;;;;;4.67;4.67;;;;;21.06;62.89;101222.97;5086141;27;65429;-46
2023/08/15 04:44:46;;;;;;;;;4.33;4.00;;;;;21.05;63.44;101223.97;5086234;27;45434;-46
2023/08/15 04:47:11;;;;;;;;;5.00;3.00;;;;;21.02;63.75;101226.94;5085095;27;48296;-46
2023/08/15 04:49:37;;;;;;;;;3.33;3.33;;;;;21.02;63.28;101229.66;5096859;27;45925;-49
2023/08/15 04:52:02;;;;;;;;;4.67;4.00;;;;;21.03;63.56;101231.34;5097929;27;45547;-47
2023/08/15 04:54:28;;;;;;;;;3.00;3.00;;;;;21.03;63.26;101226.81;5079475;27;45842;-45
2023/08/15 04:56:53;;;;;;;;;2.75;2.75;;;;;21.05;63.30;101221.25;5091367;27;68448;-46
2023/08/15 04:59:19;;;;;;;;;5.00;3.67;;;;;21.08;63.44;101227.25;5080017;27;45410;-45
2023/08/15 05:01:44;;;;;;;;;7.00;4.67;;;;;21.10;63.45;101229.81;5091666;27;45477;-49
2023/08/15 05:04:10;;;;;;;;;4.33;3.00;;;;;21.10;63.38;101236.06;5096769;27;45797;-47
2023/08/15 05:06:35;;;;;;;;;5.33;4.00;;;;;21.12;62.79;101236.81;5092517;27;45853;-46
2023/08/15 05:09:01;;;;;;;;;9.67;2.67;;;;;21.14;62.89;101239.38;5070478;28;70152;-48
2023/08/15 05:11:26;;;;;;;;;3.67;3.00;;;;;21.15;62.95;101241.94;5091688;27;45335;-48
2023/08/15 05:13:52;;;;;;;;;5.33;3.67;;;;;21.17;62.71;101241.81;5080090;27;72204;-47
2023/08/15 05:16:17;;;;;;;;;3.00;3.00;;;;;21.20;63.14;101248.78;5090874;27;50863;-48
2023/08/15 05:18:42;;;;;;;;;6.00;4.00;;;;;21.22;63.51;101253.06;5080062;27;60601;-45
2023/08/15 05:21:07;;;;;;;;;4.00;4.00;;;;;21.27;63.35;101245.41;5062135;28;45316;-46
2023/08/15 05:23:33;;;;;;;;;3.00;2.67;;;;;21.29;62.96;101246.13;5096733;27;59623;-45
2023/08/15 05:25:58;;;;;;;;;3.00;3.00;;;;;21.33;63.13;101252.13;5082607;27;66605;-47
2023/08/15 05:28:24;;;;;;;;;3.33;2.67;;;;;21.35;63.39;101257.41;5092894;27;45946;-45
2023/08/15 05:30:49;;;;;;;;;6.67;3.00;;;;;21.38;63.62;101249.00;5089751;27;57563;-49
2023/08/15 05:33:14;;;;;;;;;3.67;3.00;;;;;21.41;62.75;101249.59;5083831;27;45225;-46
2023/08/15 05:35:40;;;;;;;;;3.00;2.33;;;;;21.45;62.85;101252.91;5097038;27;71304;-47
2023/08/15 05:38:05;;;;;;;;;3.00;3.00;;;;;21.49;63.47;101248.91;5092417;27;63777;-49
2023/08/15 05:40:32;;;;;;;;;7.67;4.67;;;;;21.53;63.05;101253.06;5079573;27;65363;-46
2023/08/15 05:42:58;;;;;;;;;4.67;3.00;;;;;21.59;62.27;101251.66;5083102;27;45524;-45
2023/08/15 05:45:23;;;;;;;;;6.33;3.00;;;;;21.61;62.85;101255.94;5097521;27;45734;-48
2023/08/15 05:47:49;;;;;;;;;4.33;4.00;;;;;21.65;63.22;101251.13;5092260;27;45606;-49
2023/08/15 05:50:14;;;;;;;;;2.00;2.00;;;;;21.69;62.79;101255.25;5089337;27;45476;-48
2023/08/15 05:52:39;;;;;;;;;3.67;3.00;;;;;21.73;62.74;101261.25;5062669;27;47126;-48
2023/08/15 05:55:05;;;;;;;;;6.00;4.00;;;;;21.79;62.76;101266.13;5092725;27;45480;-48
2023/08/15 05:57:30;;;;;;;;;3.00;3.00;;;;;21.85;62.44;101271.00;5079722;27;45491;-49
2023/08/15 05:59:55;;;;;;;;;5.00;4.00;;;;;21.91;62.53;101283.94;5078101;28;63438;-50
2023/08/15 06:02:21;;;;;;;;;5.33;4.00;;;;;21.98;62.33;101284.28;5077558;27;69662;-45
2023/08/15 06:04:46;;;;;;;;;6.67;3.33;;;;;22.05;62.07;101282.72;5089218;27;45354;-48
2023/08/15 06:07:12;;;;;;;;;3.67;3.33;;;;;22.11;62.32;101286.69;5098208;27;67093;-49
2023/08/15 06:09:38;;;;;;;;;2.67;2.33;;;;;22.17;61.96;101282.59;5098769;27;45429;-50
2023/08/15 06:12:04;;;;;;;;;4.33;4.33;;;;;22.20;61.32;101285.88;5085197;27;46171;-45
2023/08/15 06:14:29;;;;;;;;;6.00;3.00;;;;;22.22;61.33;101291.16;5093454;27;45290;-46
2023/08/15 06:16:55;;;;;;;;;4.33;4.33;;;;;22.24;61.36;101302.69;5084503;27;45398;-46
2023/08/15 06:19:20;;;;;;;;;4.33;3.00;;;;;22.24;61.63;101308.97;5097725;27;45650;-46
2023/08/15 06:21:46;;;;;;;;;4.33;3.00;;;;;22.26;61.38;101312.38;5092492;27;47069;-49
2023/08/15 06:24:12;;;;;;;;;2.00;2.00;;;;;22.26;61.58;101312.38;5086408;27;51972;-47
2023/08/15 06:26:38;;;;;;;;;3.00;3.00;;;;;22.23;61.24;101319.97;5079724;27;45356;-51
2023/08/15 06:29:04;;;;;;;;;1.67;1.67;;;;;22.24;61.31;101318.94;5080526;27;56646;-47
2023/08/15 06:31:30;;;;;;;;;4.00;4.00;;;;;22.31;61.44;101323.66;5070186;27;45667;-50
2023/08/15 06:33:56;;;;;;;;;4.00;2.00;;;;;22.44;61.42;101319.84;5083949;27;45393;-49
2023/08/15 06:36:21;;;;;;;;;3.67;3.00;;;;;22.69;60.67;101329.25;5086667;27;65108;-46
2023/08/15 06:38:49;;;;;;;;;3.67;3.67;;;;;23.59;60.43;101337.94;5063826;27;45700;-55
2023/08/15 06:41:14;;;;;;;;;6.33;2.67;;;;;24.37;58.56;101335.84;5084140;27;46342;-54
2023/08/15 06:43:39;;;;;;;;;5.33;3.00;;;;;24.83;57.32;101328.44;5086551;27;68564;-54
2023/08/15 06:46:05;;;;;;;;;3.00;3.00;;;;;26.15;55.83;101333.78;5093205;27;66250;-53
2023/08/15 06:48:30;;;;;;;;;4.00;3.00;;;;;27.64;52.87;101331.88;5086373;27;68390;-54
2023/08/15 06:50:55;;;;;;;;;3.00;3.00;;;;;29.34;48.52;101334.63;5082118;27;46220;-54
2023/08/15 06:53:22;;;;;;;;;5.00;3.25;;;;;30.43;46.80;101338.56;5094723;27;71523;-54
2023/08/15 06:55:50;;;;;;;;;5.00;3.00;;;;;30.47;45.73;101347.28;5080656;27;64428;-53
2023/08/15 06:58:16;;;;;;;;;3.50;3.50;;;;;30.72;45.31;101347.72;5087188;27;45591;-54
2023/08/15 07:00:42;;;;;;;;;5.25;4.00;;;;;31.62;43.94;101355.41;5078044;27;45339;-54
2023/08/15 07:03:08;;;;;;;;;3.25;3.00;;;;;32.37;41.37;101358.22;5088002;27;45478;-54
2023/08/15 07:05:34;;;;;;;;;3.50;3.50;;;;;32.38;40.95;101361.84;5093976;27;45360;-55
2023/08/15 07:07:59;;;;;;;;;3.00;3.00;;;;;33.48;39.87;101364.22;5070389;28;45682;-54
2023/08/15 07:10:25;;;;;;;;;6.75;4.75;;;;;34.67;37.66;101363.03;5091330;27;46951;-54
2023/08/15 07:12:51;;;;;;;;;1.50;1.50;;;;;35.22;36.69;101359.63;5081905;27;45389;-55
2023/08/15 07:15:16;;;;;;;;;4.00;2.25;;;;;35.33;36.70;101369.06;5080059;27;45455;-55
2023/08/15 07:17:41;;;;;;;;;4.00;4.00;;;;;35.62;33.40;101362.00;5090909;27;67465;-55
2023/08/15 07:20:09;;;;;;;;;3.75;3.75;;;;;36.57;30.78;101362.44;5081048;27;45998;-54
2023/08/15 07:22:34;;;;;;;;;2.00;2.00;;;;;37.76;33.03;101360.53;5090915;27;45404;-54
2023/08/15 07:25:00;;;;;;;;;5.00;2.75;;;;;38.81;31.31;101362.28;5069536;27;45388;-55
2023/08/15 07:27:25;;;;;;;;;5.25;1.75;;;;;39.04;30.23;101373.19;5091094;27;45634;-55
2023/08/15 07:29:51;;;;;;;;;1.50;1.50;;;;;38.88;26.99;101365.72;5080245;27;75543;-54
2023/08/15 07:32:16;;;;;;;;;5.25;2.00;;;;;39.17;29.21;101369.22;5081558;27;67544;-54
2023/08/15 07:34:41;;;;;;;;;2.25;2.00;;;;;40.55;28.41;101374.03;5098893;27;45325;-54
2023/08/15 07:37:07;;;;;;;;;5.00;3.00;;;;;42.12;27.18;101372.72;5082183;27;45588;-53
2023/08/15 07:39:32;;;;;;;;;3.50;2.00;;;;;43.58;25.21;101378.84;5082738;27;70097;-53
2023/08/15 07:41:58;;;;;;;;;0.00;0.00;;;;;44.70;23.81;101377.63;5081122;27;45437;-53
2023/08/15 07:44:25;;;;;;;;;1.50;1.00;;;;;45.45;24.08;101386.72;5083772;27;63955;-56
2023/08/15 07:46:50;;;;;;;;;2.00;2.00;;;;;46.00;22.74;101381.53;5074526;28;45372;-56
2023/08/15 07:49:15;;;;;;;;;3.00;1.25;;;;;46.48;22.00;101379.69;5096139;27;74388;-54
2023/08/15 07:51:41;;;;;;;;;3.50;2.00;;;;;47.22;19.85;101384.59;5089356;27;67883;-54
2023/08/15 07:54:06;;;;;;;;;1.75;0.75;;;;;47.45;17.97;101387.53;5093070;27;45212;-54
2023/08/15 07:56:33;;;;;;;;;2.50;2.00;;;;;47.51;18.14;101380.63;5079407;27;66813;-53
2023/08/15 07:58:59;;;;;;;;;3.00;1.50;;;;;47.23;20.28;101383.44;5092566;27;45435;-52
2023/08/15 08:01:24;;;;;;;;;1.00;1.00;;;;;46.97;19.62;101380.25;5080597;27;45390;-53
2023/08/15 08:03:49;;;;;;;;;0.50;0.50;;;;;47.52;20.12;101383.16;5082066;27;66173;-55
2023/08/15 08:06:15;;;;;;;;;3.50;2.00;;;;;48.01;19.37;101369.41;5100308;27;60565;-55
2023/08/15 08:08:40;;;;;;;;;3.25;1.75;;;;;48.45;17.85;101374.56;5084208;27;48278;-55
2023/08/15 08:11:05;;;;;;;;;1.50;1.50;;;;;48.78;19.58;101371.50;5083768;27;54899;-56
2023/08/15 08:13:31;;;;;;;;;2.75;1.00;;;;;49.06;18.71;101366.47;5079210;27;62033;-56
2023/08/15 08:15:56;;;;;;;;;2.00;1.25;;;;;49.23;17.44;101367.72;5083348;27;63791;-55
2023/08/15 08:18:21;;;;;;;;;1.50;1.00;;;;;49.31;17.74;101376.25;5084203;27;46093;-56
2023/08/15 08:20:47;;;;;;;;;1.25;0.75;;;;;49.20;17.33;101377.66;5059180;28;57189;-56
2023/08/15 08:23:13;;;;;;;;;1.25;1.25;;;;;48.00;16.93;101364.91;5078917;27;67418;-56
2023/08/15 08:25:39;;;;;;;;;1.50;1.50;;;;;46.12;18.72;101363.41;5079777;28;45450;-56
2023/08/15 08:28:05;;;;;;;;;2.00;1.50;;;;;46.10;19.13;101362.84;5092025;27;45525;-56
2023/08/15 08:30:30;;;;;;;;;1.00;1.00;;;;;47.07;19.28;101368.84;5080108;27;45782;-56
2023/08/15 08:32:55;;;;;;;;;2.75;1.00;;;;;47.91;18.09;101361.19;5084068;27;45922;-57
2023/08/15 08:35:21;;;;;;;;;1.75;0.00;;;;;48.69;18.03;101354.50;5094376;27;48050;-56
2023/08/15 08:37:49;;;;;;;;;2.00;2.00;;;;;48.11;17.18;101362.69;5092557;27;62590;-56
2023/08/15 08:40:17;;;;;;;;;3.00;1.00;;;;;47.99;17.05;101351.16;5075966;27;45465;-57
2023/08/15 08:42:43;;;;;;;;;3.75;2.00;;;;;46.74;17.00;101351.97;5095672;27;45338;-57
2023/08/15 08:45:09;;;;;;;;;1.75;1.75;;;;;45.18;18.76;101360.09;5089921;27;45569;-57
2023/08/15 08:47:37;;;;;;;;;3.00;1.75;;;;;43.88;20.51;101357.41;5092800;27;45385;-57
2023/08/15 08:50:05;;;;;;;;;1.25;1.25;;;;;43.60;20.69;101345.81;5085632;27;45530;-57
2023/08/15 08:52:31;;;;;;;;;2.00;1.50;;;;;42.68;21.02;101349.63;5097357;27;45413;-57
2023/08/15 08:54:57;;;;;;;;;3.00;1.00;;;;;41.21;22.12;101350.53;5087636;27;62252;-57
2023/08/15 08:57:23;;;;;;;;;2.75;0.25;;;;;39.98;23.80;101356.69;5068376;27;45459;-57
2023/08/15 08:59:49;;;;;;;;;2.00;2.00;;;;;38.81;24.36;101365.03;5095287;27;45404;-56
2023/08/15 09:02:19;;;;;;;;;0.25;0.25;;;;;37.95;25.59;101355.66;5079461;27;45429;-56
2023/08/15 09:04:45;;;;;;;;;1.25;1.25;;;;;37.32;26.38;101358.22;5090339;27;45460;-57
2023/08/15 09:07:10;;;;;;;;;1.25;1.25;;;;;37.15;26.71;101354.47;5071814;27;46145;-57
2023/08/15 09:09:36;;;;;;;;;1.00;1.00;;;;;36.79;27.01;101368.25;5098806;27;45516;-57
2023/08/15 09:12:01;;;;;;;;;1.75;0.50;;;;;36.04;27.67;101364.88;5084384;27;45494;-57
2023/08/15 09:14:27;;;;;;;;;3.75;1.25;;;;;35.35;28.74;101370.56;5086779;27;45445;-57
2023/08/15 09:16:52;;;;;;;;;2.75;2.75;;;;;34.74;29.47;101372.97;5075193;27;63088;-58
2023/08/15 09:19:17;;;;;;;;;1.50;1.50;;;;;34.33;29.99;101373.47;5091639;27;45383;-57
2023/08/15 09:21:44;;;;;;;;;6.75;2.00;;;;;34.00;30.45;101372.53;5080084;27;62835;-57
2023/08/15 09:24:09;;;;;;;;;3.00;1.75;;;;;33.81;30.70;101377.09;5089637;27;45235;-57
2023/08/15 09:26:36;;;;;;;;;1.50;1.50;;;;;33.64;31.19;101376.69;5084789;27;46146;-57
2023/08/15 09:29:03;;;;;;;;;1.50;1.50;;;;;33.59;31.34;101373.72;5072522;27;45777;-57
2023/08/15 09:31:29;;;;;;;;;3.25;2.75;;;;;33.77;31.68;101364.78;5078708;27;45386;-57
2023/08/15 09:33:54;;;;;;;;;1.00;1.00;;;;;33.77;32.05;101371.13;5078631;28;45625;-57
2023/08/15 09:36:23;;;;;;;;;2.00;2.00;;;;;34.26;31.85;101376.22;5083581;27;45436;-57
2023/08/15 09:38:50;;;;;;;;;2.50;2.50;;;;;35.20;30.37;101370.03;5086114;27;45303;-57
2023/08/15 09:41:16;;;;;;;;;1.00;1.00;;;;;36.13;29.51;101381.16;5079822;28;45468;-57
2023/08/15 09:43:52;;;;;;;;;1.75;1.00;;;;;37.61;28.57;101368.53;5078620;27;46135;-57
2023/08/15 09:46:18;;;;;;;;;2.00;2.00;;;;;37.54;28.05;101371.44;5076513;27;47024;-57
2023/08/15 09:48:46;;;;;;;;;2.50;2.50;;;;;36.65;28.17;101378.72;5078399;27;45398;-57
2023/08/15 09:51:13;;;;;;;;;2.25;2.25;;;;;35.73;28.93;101377.78;5079491;27;45469;-57
2023/08/15 09:53:41;;;;;;;;;1.75;1.75;;;;;36.35;29.05;101373.22;5084684;27;45390;-57
2023/08/15 09:56:07;;;;;;;;;1.00;1.00;;;;;37.40;29.08;101374.50;5082084;27;45369;-57
2023/08/15 09:58:33;;;;;;;;;2.50;2.00;;;;;37.00;27.99;101379.88;5068705;27;45577;-57
2023/08/15 10:00:59;;;;;;;;;1.75;1.75;;;;;37.90;28.08;101369.44;5082391;27;52398;-57
2023/08/15 10:03:33;;;;;;;;;2.00;2.00;;;;;40.15;26.36;101366.94;5060264;28;45659;-57
2023/08/15 10:05:59;;;;;;;;;2.00;2.00;;;;;41.40;24.80;101362.13;5096372;27;46181;-57
2023/08/15 10:08:24;;;;;;;;;1.25;1.25;;;;;41.56;23.72;101373.38;5084809;27;45457;-57
2023/08/15 10:10:51;;;;;;;;;2.00;2.00;;;;;40.34;24.63;101378.56;5091148;27;45390;-57
2023/08/15 10:13:19;;;;;;;;;1.50;1.50;;;;;38.85;25.32;101375.41;5065454;28;45550;-57
2023/08/15 10:15:45;;;;;;;;;2.50;1.00;;;;;37.55;26.84;101379.53;5083883;27;46130;-57
2023/08/15 10:18:11;;;;;;;;;1.75;1.75;;;;;36.71;27.25;101388.88;5082584;27;49903;-57
2023/08/15 10:20:36;;;;;;;;;1.00;1.00;;;;;36.90;27.71;101383.25;5071051;28;45756;-58
2023/08/15 10:23:03;;;;;;;;;2.75;2.00;;;;;37.10;27.74;101373.75;5078046;27;45429;-57
2023/08/15 10:25:35;;;;;;;;;2.00;1.00;;;;;36.23;27.82;101382.31;5085672;27;47069;-57
2023/08/15 10:28:03;;;;;;;;;2.00;1.00;;;;;35.28;29.12;101384.44;5097761;27;45512;-57
2023/08/15 10:30:41;;;;;;;;;2.00;2.00;;;;;34.67;29.49;101391.50;5079814;27;45477;-57
2023/08/15 10:33:13;;;;;;;;;3.50;1.00;;;;;34.05;30.51;101371.88;5094204;27;45457;-57
2023/08/15 10:35:46;;;;;;;;;1.00;1.00;;;;;35.13;31.15;101380.34;5078352;28;46339;-57
2023/08/15 10:38:13;;;;;;;;;2.00;2.00;;;;;36.79;29.78;101382.09;5077373;27;45635;-58
2023/08/15 10:40:40;;;;;;;;;0.00;0.00;;;;;38.81;27.54;101376.16;5086649;27;45414;-57
2023/08/15 10:43:07;;;;;;;;;3.00;1.75;;;;;40.25;26.00;101372.59;5091320;27;45475;-57
2023/08/15 10:45:54;;;;;;;;;1.00;1.00;;;;;41.68;24.79;101376.75;5091269;27;46399;-56
2023/08/15 10:48:49;;;;;;;;;2.25;1.50;;;;;43.10;23.15;101379.28;5092285;27;45284;-57
2023/08/15 10:51:25;;;;;;;;;1.00;0.25;;;;;44.03;22.35;101380.88;5081795;27;45348;-57
2023/08/15 10:53:52;;;;;;;;;2.50;1.25;;;;;43.51;21.63;101383.94;5082108;27;45493;-57
2023/08/15 10:56:19;;;;;;;;;1.00;1.00;;;;;42.11;23.05;101396.19;5081998;27;46263;-57
2023/08/15 10:58:46;;;;;;;;;1.40;1.40;;;;;41.59;23.31;101379.25;5093577;27;45327;-57
2023/08/15 11:01:17;;;;;;;;;3.00;2.00;;;;;41.09;23.81;101386.19;5090697;27;45401;-57
2023/08/15 11:03:43;;;;;;;;;3.50;2.00;;;;;41.57;23.23;101387.03;5086320;27;45401;-57
2023/08/15 11:06:12;;;;;;;;;2.00;0.50;;;;;40.68;23.23;101387.50;5099449;27;46958;-57
2023/08/15 11:08:43;;;;;;;;;1.00;1.00;;;;;39.78;23.19;101387.06;5086188;27;45524;-57
2023/08/15 11:11:09;;;;;;;;;1.50;1.50;;;;;39.03;24.33;101385.41;5091482;27;45364;-57
2023/08/15 11:13:39;;;;;;;;;0.00;0.00;;;;;38.08;25.00;101382.28;5080844;27;45608;-57
2023/08/15 11:16:05;;;;;;;;;1.25;1.25;;;;;37.55;26.18;101384.25;5091916;27;46162;-57
2023/08/15 11:18:31;;;;;;;;;1.00;1.00;;;;;38.22;26.20;101382.84;5053027;27;45500;-57
2023/08/15 11:20:56;;;;;;;;;1.00;1.00;;;;;38.54;26.01;101388.75;5101479;27;62591;-57